sensor_id;sensor_type;location;lat;lon;timestamp;temperature;humidity
80192;SHT31;69513;51.990;5.704;2024-03-08T05:56:29;6.5;54.7
80192;SHT31;69513;51.990;5.704;2024-03-08T05:58:59;6.5;54.5
80192;SHT31;69513;51.990;5.704;2024-03-08T06:01:30;6.3;54.9
80192;SHT31;69513;51.990;5.704;2024-03-08T06:04:04;6.1;55.4
80192;SHT31;69513;51.990;5.704;2024-03-08T06:06:34;5.9;55.9
80192;SHT31;69513;51.990;5.704;2024-03-08T06:09:05;5.7;56.3
80192;SHT31;69513;51.990;5.704;2024-03-08T06:11:38;5.5;56.9
80192;SHT31;69513;51.990;5.704;2024-03-08T06:14:10;5.4;57.8
80192;SHT31;69513;51.990;5.704;2024-03-08T06:16:39;5.2;58.4
80192;SHT31;69513;51.990;5.704;2024-03-08T06:19:09;5.1;58.9
80192;SHT31;69513;51.990;5.704;2024-03-08T06:21:40;5.0;59.3
80192;SHT31;69513;51.990;5.704;2024-03-08T06:24:09;4.9;59.6
80192;SHT31;69513;51.990;5.704;2024-03-08T06:26:38;4.8;60.4
80192;SHT31;69513;51.990;5.704;2024-03-08T06:29:08;4.7;60.5
80192;SHT31;69513;51.990;5.704;2024-03-08T06:31:37;4.6;61.2
80192;SHT31;69513;51.990;5.704;2024-03-08T06:34:08;4.5;61.2
80192;SHT31;69513;51.990;5.704;2024-03-08T06:36:39;4.5;61.3
80192;SHT31;69513;51.990;5.704;2024-03-08T06:39:08;4.4;61.8
80192;SHT31;69513;51.990;5.704;2024-03-08T06:41:39;4.4;61.7
80192;SHT31;69513;51.990;5.704;2024-03-08T06:44:09;4.3;62.8
80192;SHT31;69513;51.990;5.704;2024-03-08T06:46:40;4.3;63.0
80192;SHT31;69513;51.990;5.704;2024-03-08T06:49:12;4.3;63.2
80192;SHT31;69513;51.990;5.704;2024-03-08T06:51:43;4.2;63.2
80192;SHT31;69513;51.990;5.704;2024-03-08T06:54:13;4.2;63.4
80192;SHT31;69513;51.990;5.704;2024-03-08T06:56:45;4.2;63.7
80192;SHT31;69513;51.990;5.704;2024-03-08T06:59:15;4.2;63.5
80192;SHT31;69513;51.990;5.704;2024-03-08T07:01:47;4.2;64.2
80192;SHT31;69513;51.990;5.704;2024-03-08T07:04:19;4.1;64.5
80192;SHT31;69513;51.990;5.704;2024-03-08T07:06:54;4.1;64.4
80192;SHT31;69513;51.990;5.704;2024-03-08T07:09:26;4.1;64.6
80192;SHT31;69513;51.990;5.704;2024-03-08T07:11:55;4.1;64.5
80192;SHT31;69513;51.990;5.704;2024-03-08T07:14:25;4.1;64.6
80192;SHT31;69513;51.990;5.704;2024-03-08T07:16:54;4.1;64.9
80192;SHT31;69513;51.990;5.704;2024-03-08T07:19:24;4.1;65.2
80192;SHT31;69513;51.990;5.704;2024-03-08T07:21:53;4.2;64.8
80192;SHT31;69513;51.990;5.704;2024-03-08T07:24:24;4.2;65.2
80192;SHT31;69513;51.990;5.704;2024-03-08T07:27:04;4.2;64.7
80192;SHT31;69513;51.990;5.704;2024-03-08T07:29:35;4.2;65.1
80192;SHT31;69513;51.990;5.704;2024-03-08T07:32:05;4.2;65.0
80192;SHT31;69513;51.990;5.704;2024-03-08T07:34:46;4.2;65.2
80192;SHT31;69513;51.990;5.704;2024-03-08T07:37:18;4.3;65.1
80192;SHT31;69513;51.990;5.704;2024-03-08T07:39:48;4.3;64.4
80192;SHT31;69513;51.990;5.704;2024-03-08T07:42:18;4.3;64.7
80192;SHT31;69513;51.990;5.704;2024-03-08T07:44:51;4.3;64.7
80192;SHT31;69513;51.990;5.704;2024-03-08T07:47:22;4.4;65.0
80192;SHT31;69513;51.990;5.704;2024-03-08T07:49:54;4.4;65.1
80192;SHT31;69513;51.990;5.704;2024-03-08T07:52:24;4.4;63.7
80192;SHT31;69513;51.990;5.704;2024-03-08T07:54:54;4.5;63.5
80192;SHT31;69513;51.990;5.704;2024-03-08T07:57:23;4.5;64.0
80192;SHT31;69513;51.990;5.704;2024-03-08T07:59:54;4.5;63.3
80192;SHT31;69513;51.990;5.704;2024-03-08T08:02:24;4.6;62.5
80192;SHT31;69513;51.990;5.704;2024-03-08T08:04:55;4.6;63.4
80192;SHT31;69513;51.990;5.704;2024-03-08T08:07:26;4.6;64.4
80192;SHT31;69513;51.990;5.704;2024-03-08T08:09:59;4.7;64.0
80192;SHT31;69513;51.990;5.704;2024-03-08T08:12:28;4.7;63.6
80192;SHT31;69513;51.990;5.704;2024-03-08T08:14:58;4.8;64.2
80192;SHT31;69513;51.990;5.704;2024-03-08T08:17:27;4.8;63.4
80192;SHT31;69513;51.990;5.704;2024-03-08T08:19:57;4.8;63.5
80192;SHT31;69513;51.990;5.704;2024-03-08T08:22:28;4.9;63.3
80192;SHT31;69513;51.990;5.704;2024-03-08T08:24:57;4.9;63.7
80192;SHT31;69513;51.990;5.704;2024-03-08T08:27:26;4.9;63.1
80192;SHT31;69513;51.990;5.704;2024-03-08T08:29:58;5.0;63.4
80192;SHT31;69513;51.990;5.704;2024-03-08T08:32:29;5.0;63.2
80192;SHT31;69513;51.990;5.704;2024-03-08T08:34:58;5.1;63.3
80192;SHT31;69513;51.990;5.704;2024-03-08T08:37:27;5.1;62.7
80192;SHT31;69513;51.990;5.704;2024-03-08T08:40:01;5.1;63.4
80192;SHT31;69513;51.990;5.704;2024-03-08T08:42:37;5.2;62.8
80192;SHT31;69513;51.990;5.704;2024-03-08T08:45:09;5.2;63.2
80192;SHT31;69513;51.990;5.704;2024-03-08T08:47:39;5.3;62.4
80192;SHT31;69513;51.990;5.704;2024-03-08T08:50:12;5.3;62.1
80192;SHT31;69513;51.990;5.704;2024-03-08T08:52:43;5.4;62.9
80192;SHT31;69513;51.990;5.704;2024-03-08T08:55:13;5.4;63.0
80192;SHT31;69513;51.990;5.704;2024-03-08T08:57:48;5.4;62.0
80192;SHT31;69513;51.990;5.704;2024-03-08T09:00:22;5.5;61.8
80192;SHT31;69513;51.990;5.704;2024-03-08T09:02:54;5.5;61.0
80192;SHT31;69513;51.990;5.704;2024-03-08T09:05:25;5.6;61.3
80192;SHT31;69513;51.990;5.704;2024-03-08T09:07:55;5.6;62.0
80192;SHT31;69513;51.990;5.704;2024-03-08T09:10:25;5.7;62.2
80192;SHT31;69513;51.990;5.704;2024-03-08T09:12:55;5.7;62.1
80192;SHT31;69513;51.990;5.704;2024-03-08T09:15:27;5.8;62.5
80192;SHT31;69513;51.990;5.704;2024-03-08T09:17:58;5.8;61.9
80192;SHT31;69513;51.990;5.704;2024-03-08T09:20:28;5.9;61.8
80192;SHT31;69513;51.990;5.704;2024-03-08T09:22:59;5.9;61.8
80192;SHT31;69513;51.990;5.704;2024-03-08T09:25:28;6.0;61.5
80192;SHT31;69513;51.990;5.704;2024-03-08T09:27:59;6.0;61.8
80192;SHT31;69513;51.990;5.704;2024-03-08T09:30:28;6.1;61.6
80192;SHT31;69513;51.990;5.704;2024-03-08T09:32:59;6.1;62.0
80192;SHT31;69513;51.990;5.704;2024-03-08T09:35:29;6.2;61.5
80192;SHT31;69513;51.990;5.704;2024-03-08T09:37:59;6.2;62.1
80192;SHT31;69513;51.990;5.704;2024-03-08T09:40:29;6.3;61.7
80192;SHT31;69513;51.990;5.704;2024-03-08T09:43:02;6.4;61.1
80192;SHT31;69513;51.990;5.704;2024-03-08T09:45:36;6.4;61.6
80192;SHT31;69513;51.990;5.704;2024-03-08T09:48:11;6.5;60.8
80192;SHT31;69513;51.990;5.704;2024-03-08T09:50:42;6.5;60.8
80192;SHT31;69513;51.990;5.704;2024-03-08T09:53:13;6.6;61.1
80192;SHT31;69513;51.990;5.704;2024-03-08T09:55:44;6.7;61.2
80192;SHT31;69513;51.990;5.704;2024-03-08T09:58:18;6.7;61.0
80192;SHT31;69513;51.990;5.704;2024-03-08T10:01:10;6.8;60.5
80192;SHT31;69513;51.990;5.704;2024-03-08T10:03:40;6.8;60.6
80192;SHT31;69513;51.990;5.704;2024-03-08T10:06:09;6.9;61.1
80192;SHT31;69513;51.990;5.704;2024-03-08T10:08:39;7.0;60.1
80192;SHT31;69513;51.990;5.704;2024-03-08T10:11:09;7.0;59.5
80192;SHT31;69513;51.990;5.704;2024-03-08T10:13:39;7.1;59.7
80192;SHT31;69513;51.990;5.704;2024-03-08T10:16:09;7.1;58.9
80192;SHT31;69513;51.990;5.704;2024-03-08T10:18:40;7.2;60.2
80192;SHT31;69513;51.990;5.704;2024-03-08T10:21:12;7.3;59.3
80192;SHT31;69513;51.990;5.704;2024-03-08T10:23:43;7.3;59.2
80192;SHT31;69513;51.990;5.704;2024-03-08T10:26:17;7.4;59.1
80192;SHT31;69513;51.990;5.704;2024-03-08T10:28:54;7.5;58.9
80192;SHT31;69513;51.990;5.704;2024-03-08T10:31:26;7.5;59.0
80192;SHT31;69513;51.990;5.704;2024-03-08T10:33:55;7.6;59.1
80192;SHT31;69513;51.990;5.704;2024-03-08T10:36:26;7.7;58.5
80192;SHT31;69513;51.990;5.704;2024-03-08T10:39:03;7.7;58.0
80192;SHT31;69513;51.990;5.704;2024-03-08T10:41:38;7.8;58.5
80192;SHT31;69513;51.990;5.704;2024-03-08T10:44:21;7.9;58.6
80192;SHT31;69513;51.990;5.704;2024-03-08T10:47:02;7.9;58.0
80192;SHT31;69513;51.990;5.704;2024-03-08T10:49:38;8.0;57.6
80192;SHT31;69513;51.990;5.704;2024-03-08T10:52:11;8.1;57.1
80192;SHT31;69513;51.990;5.704;2024-03-08T10:54:43;8.1;57.0
80192;SHT31;69513;51.990;5.704;2024-03-08T10:57:18;8.2;57.0
80192;SHT31;69513;51.990;5.704;2024-03-08T10:59:54;8.3;57.2
80192;SHT31;69513;51.990;5.704;2024-03-08T11:02:26;8.5;55.8
80192;SHT31;69513;51.990;5.704;2024-03-08T11:04:57;8.6;56.3
80192;SHT31;69513;51.990;5.704;2024-03-08T11:07:33;8.7;55.7
80192;SHT31;69513;51.990;5.704;2024-03-08T11:10:06;8.8;54.8
80192;SHT31;69513;51.990;5.704;2024-03-08T11:12:39;9.0;55.3
80192;SHT31;69513;51.990;5.704;2024-03-08T11:15:13;9.2;55.0
80192;SHT31;69513;51.990;5.704;2024-03-08T11:17:49;9.4;54.3
80192;SHT31;69513;51.990;5.704;2024-03-08T11:20:20;9.6;52.7
80192;SHT31;69513;51.990;5.704;2024-03-08T11:22:52;9.7;53.2
80192;SHT31;69513;51.990;5.704;2024-03-08T11:25:35;9.9;52.2
80192;SHT31;69513;51.990;5.704;2024-03-08T11:28:17;10.0;52.6
80192;SHT31;69513;51.990;5.704;2024-03-08T11:31:28;10.1;51.0
80192;SHT31;69513;51.990;5.704;2024-03-08T11:33:57;10.2;51.1
80192;SHT31;69513;51.990;5.704;2024-03-08T11:36:27;10.2;51.6
80192;SHT31;69513;51.990;5.704;2024-03-08T11:38:58;10.2;51.4
80192;SHT31;69513;51.990;5.704;2024-03-08T11:41:35;10.3;49.7
80192;SHT31;69513;51.990;5.704;2024-03-08T11:44:06;10.3;49.5
80192;SHT31;69513;51.990;5.704;2024-03-08T11:46:41;10.3;50.1
80192;SHT31;69513;51.990;5.704;2024-03-08T11:49:14;10.3;50.4
80192;SHT31;69513;51.990;5.704;2024-03-08T11:51:45;10.3;49.2
80192;SHT31;69513;51.990;5.704;2024-03-08T11:54:16;10.3;50.3
80192;SHT31;69513;51.990;5.704;2024-03-08T11:56:46;10.3;50.5
80192;SHT31;69513;51.990;5.704;2024-03-08T11:59:17;10.3;49.7
80192;SHT31;69513;51.990;5.704;2024-03-08T12:01:58;10.3;50.6
80192;SHT31;69513;51.990;5.704;2024-03-08T12:04:29;10.4;51.0
80192;SHT31;69513;51.990;5.704;2024-03-08T12:07:02;10.4;50.8
80192;SHT31;69513;51.990;5.704;2024-03-08T12:09:37;10.4;50.4
80192;SHT31;69513;51.990;5.704;2024-03-08T12:12:11;10.5;50.6
80192;SHT31;69513;51.990;5.704;2024-03-08T12:14:45;10.5;49.6
80192;SHT31;69513;51.990;5.704;2024-03-08T12:17:15;10.6;50.4
80192;SHT31;69513;51.990;5.704;2024-03-08T12:19:47;10.6;50.0
80192;SHT31;69513;51.990;5.704;2024-03-08T12:22:17;10.7;49.2
80192;SHT31;69513;51.990;5.704;2024-03-08T12:25:08;10.8;49.0
80192;SHT31;69513;51.990;5.704;2024-03-08T12:27:42;10.8;48.0
80192;SHT31;69513;51.990;5.704;2024-03-08T12:30:22;10.9;48.4
80192;SHT31;69513;51.990;5.704;2024-03-08T12:32:57;11.0;49.3
80192;SHT31;69513;51.990;5.704;2024-03-08T12:35:28;11.0;49.0
80192;SHT31;69513;51.990;5.704;2024-03-08T12:38:00;11.1;48.3
80192;SHT31;69513;51.990;5.704;2024-03-08T12:40:32;11.2;48.9
80192;SHT31;69513;51.990;5.704;2024-03-08T12:43:08;11.3;47.8
80192;SHT31;69513;51.990;5.704;2024-03-08T12:45:37;11.4;47.1
80192;SHT31;69513;51.990;5.704;2024-03-08T12:48:13;11.5;46.4
80192;SHT31;69513;51.990;5.704;2024-03-08T12:50:46;11.5;47.1
80192;SHT31;69513;51.990;5.704;2024-03-08T12:53:19;11.6;47.4
80192;SHT31;69513;51.990;5.704;2024-03-08T12:55:50;11.6;46.9
80192;SHT31;69513;51.990;5.704;2024-03-08T12:58:20;11.7;47.7
80192;SHT31;69513;51.990;5.704;2024-03-08T13:00:49;11.8;47.0
80192;SHT31;69513;51.990;5.704;2024-03-08T13:03:23;11.8;45.7
80192;SHT31;69513;51.990;5.704;2024-03-08T13:05:54;11.9;46.1
80192;SHT31;69513;51.990;5.704;2024-03-08T13:08:27;12.0;47.1
80192;SHT31;69513;51.990;5.704;2024-03-08T13:10:58;12.1;45.9
80192;SHT31;69513;51.990;5.704;2024-03-08T13:13:28;12.1;46.5
80192;SHT31;69513;51.990;5.704;2024-03-08T13:15:57;12.2;45.8
80192;SHT31;69513;51.990;5.704;2024-03-08T13:18:29;12.3;46.0
80192;SHT31;69513;51.990;5.704;2024-03-08T13:20:59;12.3;45.4
80192;SHT31;69513;51.990;5.704;2024-03-08T13:23:32;12.4;45.6
80192;SHT31;69513;51.990;5.704;2024-03-08T13:26:09;12.5;45.2
80192;SHT31;69513;51.990;5.704;2024-03-08T13:28:46;12.5;44.9
80192;SHT31;69513;51.990;5.704;2024-03-08T13:31:21;12.6;44.8
80192;SHT31;69513;51.990;5.704;2024-03-08T13:33:52;12.6;44.3
80192;SHT31;69513;51.990;5.704;2024-03-08T13:36:27;12.7;44.9
80192;SHT31;69513;51.990;5.704;2024-03-08T13:39:02;12.8;43.6
80192;SHT31;69513;51.990;5.704;2024-03-08T13:41:37;12.8;44.7
80192;SHT31;69513;51.990;5.704;2024-03-08T13:44:07;12.9;45.2
80192;SHT31;69513;51.990;5.704;2024-03-08T13:46:38;13.0;45.8
80192;SHT31;69513;51.990;5.704;2024-03-08T13:49:09;13.0;44.7
80192;SHT31;69513;51.990;5.704;2024-03-08T13:51:40;13.1;44.9
80192;SHT31;69513;51.990;5.704;2024-03-08T13:54:14;13.1;44.6
80192;SHT31;69513;51.990;5.704;2024-03-08T13:56:44;13.2;45.1
80192;SHT31;69513;51.990;5.704;2024-03-08T13:59:14;13.2;45.3
80192;SHT31;69513;51.990;5.704;2024-03-08T14:01:51;13.3;43.2
80192;SHT31;69513;51.990;5.704;2024-03-08T14:04:22;13.3;43.4
80192;SHT31;69513;51.990;5.704;2024-03-08T14:06:52;13.3;42.9
80192;SHT31;69513;51.990;5.704;2024-03-08T14:09:27;13.3;42.3
80192;SHT31;69513;51.990;5.704;2024-03-08T14:11:56;13.2;43.2
80192;SHT31;69513;51.990;5.704;2024-03-08T14:14:26;13.2;43.2
80192;SHT31;69513;51.990;5.704;2024-03-08T14:16:55;13.1;43.9
80192;SHT31;69513;51.990;5.704;2024-03-08T14:19:26;13.1;43.9
80192;SHT31;69513;51.990;5.704;2024-03-08T14:21:55;13.0;44.1
80192;SHT31;69513;51.990;5.704;2024-03-08T14:24:27;13.0;43.9
80192;SHT31;69513;51.990;5.704;2024-03-08T14:26:57;13.0;44.4
80192;SHT31;69513;51.990;5.704;2024-03-08T14:29:26;13.0;44.3
80192;SHT31;69513;51.990;5.704;2024-03-08T14:31:58;13.0;44.3
80192;SHT31;69513;51.990;5.704;2024-03-08T14:34:31;13.0;43.8
80192;SHT31;69513;51.990;5.704;2024-03-08T14:37:05;13.1;43.8
80192;SHT31;69513;51.990;5.704;2024-03-08T14:39:39;13.1;44.2
80192;SHT31;69513;51.990;5.704;2024-03-08T14:42:10;13.3;43.0
80192;SHT31;69513;51.990;5.704;2024-03-08T14:44:44;13.4;43.4
80192;SHT31;69513;51.990;5.704;2024-03-08T14:47:18;13.5;42.9
80192;SHT31;69513;51.990;5.704;2024-03-08T14:49:50;13.6;43.3
80192;SHT31;69513;51.990;5.704;2024-03-08T14:52:21;13.7;43.0
80192;SHT31;69513;51.990;5.704;2024-03-08T14:54:57;13.8;42.1
80192;SHT31;69513;51.990;5.704;2024-03-08T14:57:28;13.8;41.7
80192;SHT31;69513;51.990;5.704;2024-03-08T15:00:00;13.9;41.7
80192;SHT31;69513;51.990;5.704;2024-03-08T15:02:33;13.9;42.1
80192;SHT31;69513;51.990;5.704;2024-03-08T15:05:06;13.9;41.9
80192;SHT31;69513;51.990;5.704;2024-03-08T15:07:41;13.9;42.1
80192;SHT31;69513;51.990;5.704;2024-03-08T15:10:10;13.8;41.8
80192;SHT31;69513;51.990;5.704;2024-03-08T15:12:45;13.8;41.6
80192;SHT31;69513;51.990;5.704;2024-03-08T15:15:15;13.7;41.9
80192;SHT31;69513;51.990;5.704;2024-03-08T15:17:46;13.7;42.5
80192;SHT31;69513;51.990;5.704;2024-03-08T15:20:15;13.6;41.5
80192;SHT31;69513;51.990;5.704;2024-03-08T15:22:52;13.6;41.9
80192;SHT31;69513;51.990;5.704;2024-03-08T15:25:26;13.5;42.1
80192;SHT31;69513;51.990;5.704;2024-03-08T15:27:57;13.4;42.5
80192;SHT31;69513;51.990;5.704;2024-03-08T15:30:28;13.3;43.3
80192;SHT31;69513;51.990;5.704;2024-03-08T15:32:58;13.2;42.7
80192;SHT31;69513;51.990;5.704;2024-03-08T15:35:31;13.1;43.7
80192;SHT31;69513;51.990;5.704;2024-03-08T15:38:03;13.0;43.5
80192;SHT31;69513;51.990;5.704;2024-03-08T15:40:34;12.9;43.3
80192;SHT31;69513;51.990;5.704;2024-03-08T15:43:07;12.8;44.2
80192;SHT31;69513;51.990;5.704;2024-03-08T15:45:40;12.8;44.3
80192;SHT31;69513;51.990;5.704;2024-03-08T15:48:12;12.7;44.3
80192;SHT31;69513;51.990;5.704;2024-03-08T15:50:43;12.7;43.8
80192;SHT31;69513;51.990;5.704;2024-03-08T15:53:14;12.6;44.7
80192;SHT31;69513;51.990;5.704;2024-03-08T15:55:44;12.5;44.4
80192;SHT31;69513;51.990;5.704;2024-03-08T15:58:15;12.5;44.5
80192;SHT31;69513;51.990;5.704;2024-03-08T16:00:48;12.4;44.2
80192;SHT31;69513;51.990;5.704;2024-03-08T16:03:20;12.4;44.8
80192;SHT31;69513;51.990;5.704;2024-03-08T16:05:52;12.3;45.8
80192;SHT31;69513;51.990;5.704;2024-03-08T16:08:22;12.3;44.8
80192;SHT31;69513;51.990;5.704;2024-03-08T16:10:53;12.2;45.1
80192;SHT31;69513;51.990;5.704;2024-03-08T16:13:26;12.2;45.7
80192;SHT31;69513;51.990;5.704;2024-03-08T16:15:56;12.1;45.0
80192;SHT31;69513;51.990;5.704;2024-03-08T16:18:25;12.1;45.2
80192;SHT31;69513;51.990;5.704;2024-03-08T16:20:59;12.0;45.0
80192;SHT31;69513;51.990;5.704;2024-03-08T16:23:30;12.0;45.4
80192;SHT31;69513;51.990;5.704;2024-03-08T16:26:03;11.9;45.8
80192;SHT31;69513;51.990;5.704;2024-03-08T16:28:36;11.9;45.5
80192;SHT31;69513;51.990;5.704;2024-03-08T16:31:11;11.9;45.3
80192;SHT31;69513;51.990;5.704;2024-03-08T16:33:42;11.8;45.7
80192;SHT31;69513;51.990;5.704;2024-03-08T16:36:12;11.8;45.7
80192;SHT31;69513;51.990;5.704;2024-03-08T16:38:43;11.7;46.1
80192;SHT31;69513;51.990;5.704;2024-03-08T16:41:16;11.7;46.0
80192;SHT31;69513;51.990;5.704;2024-03-08T16:43:49;11.6;46.1
80192;SHT31;69513;51.990;5.704;2024-03-08T16:46:21;11.6;46.8
80192;SHT31;69513;51.990;5.704;2024-03-08T16:48:50;11.6;47.4
80192;SHT31;69513;51.990;5.704;2024-03-08T16:51:19;11.6;46.2
80192;SHT31;69513;51.990;5.704;2024-03-08T16:53:50;11.6;46.6
80192;SHT31;69513;51.990;5.704;2024-03-08T16:56:21;11.6;46.2
80192;SHT31;69513;51.990;5.704;2024-03-08T16:58:51;11.5;46.7
80192;SHT31;69513;51.990;5.704;2024-03-08T17:01:22;11.5;46.7
80192;SHT31;69513;51.990;5.704;2024-03-08T17:03:51;11.4;46.9
80192;SHT31;69513;51.990;5.704;2024-03-08T17:06:23;11.4;46.6
80192;SHT31;69513;51.990;5.704;2024-03-08T17:08:53;11.4;47.1
80192;SHT31;69513;51.990;5.704;2024-03-08T17:11:24;11.3;47.5
80192;SHT31;69513;51.990;5.704;2024-03-08T17:13:53;11.3;47.3
80192;SHT31;69513;51.990;5.704;2024-03-08T17:16:23;11.3;47.4
80192;SHT31;69513;51.990;5.704;2024-03-08T17:18:53;11.2;47.3
80192;SHT31;69513;51.990;5.704;2024-03-08T17:21:23;11.2;46.7
80192;SHT31;69513;51.990;5.704;2024-03-08T17:23:52;11.1;46.9
80192;SHT31;69513;51.990;5.704;2024-03-08T17:26:24;11.1;47.0
80192;SHT31;69513;51.990;5.704;2024-03-08T17:28:55;11.1;47.5
80192;SHT31;69513;51.990;5.704;2024-03-08T17:31:26;11.0;47.5
80192;SHT31;69513;51.990;5.704;2024-03-08T17:33:56;11.0;47.6
80192;SHT31;69513;51.990;5.704;2024-03-08T17:36:26;10.9;47.6
80192;SHT31;69513;51.990;5.704;2024-03-08T17:38:56;10.9;48.4
80192;SHT31;69513;51.990;5.704;2024-03-08T17:41:26;10.8;48.2
80192;SHT31;69513;51.990;5.704;2024-03-08T17:44:02;10.8;48.4
80192;SHT31;69513;51.990;5.704;2024-03-08T17:46:32;10.8;48.6
80192;SHT31;69513;51.990;5.704;2024-03-08T17:49:02;10.7;48.9
80192;SHT31;69513;51.990;5.704;2024-03-08T17:51:35;10.7;49.2
80192;SHT31;69513;51.990;5.704;2024-03-08T17:54:05;10.6;49.3
80192;SHT31;69513;51.990;5.704;2024-03-08T17:56:40;10.6;49.0
80192;SHT31;69513;51.990;5.704;2024-03-08T17:59:10;10.6;48.5
80192;SHT31;69513;51.990;5.704;2024-03-08T18:01:41;10.5;49.1
80192;SHT31;69513;51.990;5.704;2024-03-08T18:04:14;10.5;49.0
80192;SHT31;69513;51.990;5.704;2024-03-08T18:06:43;10.5;49.2
80192;SHT31;69513;51.990;5.704;2024-03-08T18:09:12;10.4;49.6
80192;SHT31;69513;51.990;5.704;2024-03-08T18:11:42;10.4;49.6
80192;SHT31;69513;51.990;5.704;2024-03-08T18:14:11;10.4;49.9
80192;SHT31;69513;51.990;5.704;2024-03-08T18:16:43;10.4;50.0
80192;SHT31;69513;51.990;5.704;2024-03-08T18:19:12;10.3;49.8
80192;SHT31;69513;51.990;5.704;2024-03-08T18:21:47;10.3;49.6
80192;SHT31;69513;51.990;5.704;2024-03-08T18:24:18;10.3;50.1
80192;SHT31;69513;51.990;5.704;2024-03-08T18:26:48;10.2;50.1
80192;SHT31;69513;51.990;5.704;2024-03-08T18:29:19;10.2;50.0
80192;SHT31;69513;51.990;5.704;2024-03-08T18:31:50;10.2;50.5
80192;SHT31;69513;51.990;5.704;2024-03-08T18:34:19;10.1;50.6
80192;SHT31;69513;51.990;5.704;2024-03-08T18:36:49;10.1;50.2
80192;SHT31;69513;51.990;5.704;2024-03-08T18:39:18;10.1;50.3
80192;SHT31;69513;51.990;5.704;2024-03-08T18:41:53;10.0;50.8
80192;SHT31;69513;51.990;5.704;2024-03-08T18:44:22;10.0;50.9
80192;SHT31;69513;51.990;5.704;2024-03-08T18:46:52;10.0;51.2
80192;SHT31;69513;51.990;5.704;2024-03-08T18:49:25;9.9;50.9
80192;SHT31;69513;51.990;5.704;2024-03-08T18:51:54;9.9;51.0
80192;SHT31;69513;51.990;5.704;2024-03-08T18:54:25;9.9;51.4
80192;SHT31;69513;51.990;5.704;2024-03-08T18:56:55;9.8;51.7
80192;SHT31;69513;51.990;5.704;2024-03-08T18:59:25;9.8;51.7
80192;SHT31;69513;51.990;5.704;2024-03-08T19:01:57;9.8;51.5
80192;SHT31;69513;51.990;5.704;2024-03-08T19:04:27;9.8;51.7
80192;SHT31;69513;51.990;5.704;2024-03-08T19:06:56;9.7;51.5
80192;SHT31;69513;51.990;5.704;2024-03-08T19:09:26;9.7;51.9
80192;SHT31;69513;51.990;5.704;2024-03-08T19:11:55;9.7;52.1
80192;SHT31;69513;51.990;5.704;2024-03-08T19:14:28;9.7;52.1
80192;SHT31;69513;51.990;5.704;2024-03-08T19:16:58;9.6;52.2
80192;SHT31;69513;51.990;5.704;2024-03-08T19:19:31;9.6;52.1
80192;SHT31;69513;51.990;5.704;2024-03-08T19:22:03;9.6;52.1
80192;SHT31;69513;51.990;5.704;2024-03-08T19:24:33;9.6;52.2
80192;SHT31;69513;51.990;5.704;2024-03-08T19:27:05;9.6;52.2
80192;SHT31;69513;51.990;5.704;2024-03-08T19:29:40;9.6;52.3
80192;SHT31;69513;51.990;5.704;2024-03-08T19:32:09;9.6;52.8
80192;SHT31;69513;51.990;5.704;2024-03-08T19:34:41;9.5;52.8
80192;SHT31;69513;51.990;5.704;2024-03-08T19:37:11;9.5;52.9
80192;SHT31;69513;51.990;5.704;2024-03-08T19:39:41;9.5;52.6
80192;SHT31;69513;51.990;5.704;2024-03-08T19:42:12;9.5;52.3
80192;SHT31;69513;51.990;5.704;2024-03-08T19:44:42;9.5;52.4
80192;SHT31;69513;51.990;5.704;2024-03-08T19:47:16;9.4;52.6
80192;SHT31;69513;51.990;5.704;2024-03-08T19:49:45;9.4;52.6
80192;SHT31;69513;51.990;5.704;2024-03-08T19:52:15;9.4;52.8
80192;SHT31;69513;51.990;5.704;2024-03-08T19:54:48;9.4;52.8
80192;SHT31;69513;51.990;5.704;2024-03-08T19:57:18;9.4;53.2
80192;SHT31;69513;51.990;5.704;2024-03-08T19:59:48;9.3;53.0
80192;SHT31;69513;51.990;5.704;2024-03-08T20:02:20;9.3;53.2
80192;SHT31;69513;51.990;5.704;2024-03-08T20:04:52;9.3;53.1
80192;SHT31;69513;51.990;5.704;2024-03-08T20:07:23;9.3;53.1
80192;SHT31;69513;51.990;5.704;2024-03-08T20:09:54;9.3;53.5
80192;SHT31;69513;51.990;5.704;2024-03-08T20:12:23;9.3;53.3
80192;SHT31;69513;51.990;5.704;2024-03-08T20:14:53;9.3;53.3
80192;SHT31;69513;51.990;5.704;2024-03-08T20:17:22;9.2;53.4
80192;SHT31;69513;51.990;5.704;2024-03-08T20:19:53;9.2;53.8
80192;SHT31;69513;51.990;5.704;2024-03-08T20:22:22;9.2;53.4
80192;SHT31;69513;51.990;5.704;2024-03-08T20:24:52;9.2;53.5
80192;SHT31;69513;51.990;5.704;2024-03-08T20:27:23;9.2;54.0
80192;SHT31;69513;51.990;5.704;2024-03-08T20:29:55;9.2;54.1
80192;SHT31;69513;51.990;5.704;2024-03-08T20:32:26;9.2;54.2
80192;SHT31;69513;51.990;5.704;2024-03-08T20:34:57;9.1;53.6
80192;SHT31;69513;51.990;5.704;2024-03-08T20:37:27;9.1;53.9
80192;SHT31;69513;51.990;5.704;2024-03-08T20:39:58;9.1;53.9
80192;SHT31;69513;51.990;5.704;2024-03-08T20:42:29;9.1;54.0
80192;SHT31;69513;51.990;5.704;2024-03-08T20:44:58;9.1;54.3
80192;SHT31;69513;51.990;5.704;2024-03-08T20:47:31;9.1;54.2
80192;SHT31;69513;51.990;5.704;2024-03-08T20:50:07;9.1;54.2
80192;SHT31;69513;51.990;5.704;2024-03-08T20:52:41;9.1;54.3
80192;SHT31;69513;51.990;5.704;2024-03-08T20:55:13;9.0;54.6
80192;SHT31;69513;51.990;5.704;2024-03-08T20:57:44;9.0;54.5
80192;SHT31;69513;51.990;5.704;2024-03-08T21:00:20;9.0;54.5
80192;SHT31;69513;51.990;5.704;2024-03-08T21:03:09;9.0;54.5
80192;SHT31;69513;51.990;5.704;2024-03-08T21:05:42;9.0;55.0
80192;SHT31;69513;51.990;5.704;2024-03-08T21:08:15;9.0;55.0
80192;SHT31;69513;51.990;5.704;2024-03-08T21:10:51;9.0;54.4
80192;SHT31;69513;51.990;5.704;2024-03-08T21:13:24;8.9;55.0
80192;SHT31;69513;51.990;5.704;2024-03-08T21:15:55;8.9;54.8
80192;SHT31;69513;51.990;5.704;2024-03-08T21:18:27;8.9;55.1
80192;SHT31;69513;51.990;5.704;2024-03-08T21:20:59;8.9;55.1
80192;SHT31;69513;51.990;5.704;2024-03-08T21:23:28;8.9;55.0
80192;SHT31;69513;51.990;5.704;2024-03-08T21:26:00;8.9;54.9
